createdAt,value
2019-03-27T00:00:01.137Z,70.2
2019-03-27T00:01:01.150Z,70.1
2019-03-27T00:02:01.056Z,70.5
2019-03-27T00:03:00.942Z,70.3
2019-03-27T00:04:00.820Z,70.3
2019-03-27T00:05:01.165Z,70.3
2019-03-27T00:06:01.062Z,70.5
2019-03-27T00:07:00.952Z,70.7
2019-03-27T00:08:00.846Z,70.6
2019-03-27T00:09:00.730Z,70.5
2019-03-27T00:10:00.722Z,70.7
2019-03-27T00:11:00.612Z,70.2
2019-03-27T00:12:00.531Z,70.4
2019-03-27T00:13:00.412Z,70.3
2019-03-27T00:14:00.357Z,70.3
2019-03-27T00:15:14.367Z,70.4
2019-03-27T00:16:14.344Z,71.2
2019-03-27T00:17:14.242Z,70.7
2019-03-27T00:18:14.156Z,70.8
2019-03-27T00:19:14.062Z,70.7
2019-03-27T00:20:13.952Z,70.5
2019-03-27T00:21:13.832Z,70.5
2019-03-27T00:22:13.775Z,70.6
2019-03-27T00:23:13.704Z,70.8
2019-03-27T00:24:13.658Z,70.7
2019-03-27T00:25:13.952Z,70.1
2019-03-27T00:26:13.824Z,70.6
2019-03-27T00:27:13.703Z,70.7
2019-03-27T00:28:13.613Z,70.5
2019-03-27T00:29:13.503Z,70.7
2019-03-27T00:30:13.404Z,70.8
2019-03-27T00:31:13.297Z,70.7
2019-03-27T00:32:13.189Z,70.6
2019-03-27T00:33:13.127Z,70.5
2019-03-27T00:34:13.017Z,70.5
2019-03-27T00:35:13.340Z,70.7
2019-03-27T00:36:13.235Z,70.7
2019-03-27T00:37:13.136Z,70.9
2019-03-27T00:38:13.034Z,71.6
2019-03-27T00:39:12.933Z,71.2
2019-03-27T00:40:12.837Z,71
2019-03-27T00:41:12.752Z,70.8
2019-03-27T00:42:12.643Z,71
2019-03-27T00:43:12.554Z,71.1
2019-03-27T00:44:12.454Z,71.2
2019-03-27T00:45:27.676Z,70.3
2019-03-27T00:55:25.613Z,68.3
2019-03-27T00:56:25.494Z,69.1
2019-03-27T00:57:25.580Z,69.5
2019-03-27T00:58:25.457Z,69.5
2019-03-27T00:59:25.345Z,69.2
2019-03-27T01:00:25.251Z,69.3
2019-03-27T01:01:25.143Z,70.1
2019-03-27T01:02:25.039Z,70.3
2019-03-27T01:03:24.921Z,70.1
2019-03-27T01:04:24.807Z,70.2
2019-03-27T01:05:25.180Z,70.2
2019-03-27T01:15:23.154Z,67.8
2019-03-27T01:16:23.059Z,68.6
2019-03-27T01:17:22.949Z,68.9
2019-03-27T01:18:22.880Z,68.9
2019-03-27T01:19:22.764Z,69.9
2019-03-27T01:20:22.655Z,69.4
2019-03-27T01:21:22.543Z,69.2
2019-03-27T01:22:22.449Z,69.2
2019-03-27T01:23:22.346Z,69.2
2019-03-27T01:24:22.241Z,69.5
2019-03-27T01:25:22.565Z,70
2019-03-27T01:26:22.467Z,70.5
2019-03-27T01:27:22.380Z,70.5
2019-03-27T01:28:22.322Z,70.8
2019-03-27T01:29:22.208Z,70.9
2019-03-27T01:30:22.129Z,71.5
2019-03-27T01:31:22.113Z,71.5
2019-03-27T01:32:22.008Z,71.3
2019-03-27T01:33:21.941Z,71.5
2019-03-27T01:34:21.814Z,71.9
2019-03-27T01:35:22.204Z,72
2019-03-27T01:36:22.109Z,71.7
2019-03-27T01:37:22.034Z,71.7
2019-03-27T01:38:21.975Z,71.6
2019-03-27T01:39:21.855Z,71.6
2019-03-27T01:40:21.740Z,71.4
2019-03-27T01:41:21.668Z,71.5
2019-03-27T01:42:21.564Z,71.6
2019-03-27T01:43:21.459Z,71.5
2019-03-27T01:44:21.370Z,71.9
2019-03-27T01:45:21.705Z,71.8
2019-03-27T01:46:21.629Z,71.9
2019-03-27T01:47:21.531Z,72.2
2019-03-27T01:48:21.437Z,72.5
2019-03-27T01:49:21.328Z,73.2
2019-03-27T01:50:21.250Z,72.8
2019-03-27T01:51:21.153Z,72.3
2019-03-27T01:52:21.082Z,72.4
2019-03-27T01:53:21.045Z,72.9
2019-03-27T01:54:20.940Z,73
2019-03-27T01:55:21.348Z,73.1
2019-03-27T01:56:21.279Z,73.3
2019-03-27T01:57:21.165Z,73.2
2019-03-27T01:58:21.057Z,73.1
2019-03-27T01:59:20.939Z,73.4
2019-03-27T02:00:20.859Z,73.6
2019-03-27T02:01:20.771Z,73.4
2019-03-27T02:02:20.663Z,73.5
2019-03-27T02:03:20.558Z,73.5
2019-03-27T02:04:20.453Z,73.8
2019-03-27T02:05:20.781Z,74.1
2019-03-27T02:06:20.675Z,74.1
2019-03-27T02:07:20.555Z,74.1
2019-03-27T02:08:20.429Z,73.8
2019-03-27T02:09:20.379Z,73.9
2019-03-27T02:10:20.307Z,74
2019-03-27T02:11:20.197Z,74.6
2019-03-27T02:12:20.075Z,74.8
2019-03-27T02:13:19.955Z,74.6
2019-03-27T02:14:19.839Z,74.3
2019-03-27T02:15:20.183Z,73.9
2019-03-27T02:25:18.061Z,70.9
2019-03-27T02:26:17.957Z,71.6
2019-03-27T02:27:17.863Z,71.8
2019-03-27T02:28:17.753Z,71.6
2019-03-27T02:29:17.643Z,71.5
2019-03-27T02:30:17.594Z,71.9
2019-03-27T02:31:17.556Z,71.8
2019-03-27T02:32:21.749Z,72
2019-03-27T02:33:21.674Z,72.3
2019-03-27T02:34:21.666Z,72.4
2019-03-27T02:35:22.183Z,72.5
2019-03-27T02:45:20.693Z,69.2
2019-03-27T02:46:26.191Z,69.9
2019-03-27T02:47:26.234Z,70.3
2019-03-27T02:48:26.247Z,70.4
2019-03-27T02:49:26.251Z,70.9
2019-03-27T02:50:26.164Z,71.2
2019-03-27T02:51:26.076Z,71
2019-03-27T02:52:26.006Z,71.2
2019-03-27T02:53:25.974Z,70.9
2019-03-27T02:54:25.957Z,71.2
2019-03-27T02:55:26.359Z,71.2
2019-03-27T02:56:26.273Z,71.7
2019-03-27T02:57:26.203Z,71.7
2019-03-27T02:58:26.135Z,72
2019-03-27T02:59:26.078Z,72.2
2019-03-27T03:00:26.009Z,72.2
2019-03-27T03:01:25.933Z,72.9
2019-03-27T03:02:25.854Z,72.2
2019-03-27T03:03:25.743Z,72.4
2019-03-27T03:04:25.723Z,72.7
2019-03-27T03:05:26.212Z,72.7
2019-03-27T03:06:26.118Z,73.4
2019-03-27T03:07:26.178Z,73.6
2019-03-27T03:08:26.090Z,74.3
2019-03-27T03:09:26.071Z,74.3
2019-03-27T03:10:25.978Z,74.1
2019-03-27T03:11:25.923Z,74.6
2019-03-27T03:12:25.871Z,74.6
2019-03-27T03:13:25.791Z,74.6
2019-03-27T03:14:25.743Z,75
2019-03-27T03:15:26.143Z,75.5
2019-03-27T03:16:43.959Z,75.5
2019-03-27T03:17:43.873Z,75.4
2019-03-27T03:18:43.795Z,75.3
2019-03-27T03:19:43.728Z,75.2
2019-03-27T03:20:43.646Z,74.9
2019-03-27T03:21:43.559Z,75.2
2019-03-27T03:22:43.501Z,75.1
2019-03-27T03:23:43.424Z,75
2019-03-27T03:24:43.350Z,74.8
2019-03-27T03:25:43.750Z,74.8
2019-03-27T03:45:40.600Z,70.1
2019-03-27T03:46:40.533Z,70.8
2019-03-27T03:47:40.565Z,71.1
2019-03-27T03:48:40.493Z,70.9
2019-03-27T03:49:40.558Z,70.9
2019-03-27T03:50:40.531Z,71
2019-03-27T03:51:40.469Z,71
2019-03-27T03:52:40.369Z,71.3
2019-03-27T03:53:40.274Z,71.8
2019-03-27T03:54:40.189Z,72.3
2019-03-27T03:55:40.654Z,72.2
2019-03-27T04:05:38.918Z,72.5
2019-03-27T04:06:38.864Z,73.2
2019-03-27T04:07:38.753Z,73.8
2019-03-27T04:08:38.659Z,73.6
2019-03-27T04:09:38.642Z,73.7
2019-03-27T04:10:38.544Z,73.9
2019-03-27T04:11:38.609Z,74
2019-03-27T04:12:38.605Z,74
2019-03-27T04:13:38.559Z,74.3
2019-03-27T04:14:38.463Z,74.6
2019-03-27T04:15:38.809Z,74.6
2019-03-27T04:16:38.773Z,75
2019-03-27T04:17:38.721Z,75.3
2019-03-27T04:18:38.627Z,75.4
2019-03-27T04:19:38.550Z,75.6
2019-03-27T04:20:38.465Z,75.8
2019-03-27T04:21:38.382Z,76.1
2019-03-27T04:22:38.306Z,75.8
2019-03-27T04:23:38.203Z,75.7
2019-03-27T04:24:38.251Z,75.7
2019-03-27T04:26:11.379Z,75.5
2019-03-27T04:27:11.461Z,75.8
2019-03-27T04:28:11.355Z,76.3
2019-03-27T04:29:11.257Z,76.7
2019-03-27T04:30:11.177Z,76.8
2019-03-27T04:31:11.105Z,77.5
2019-03-27T04:32:10.999Z,77.2
2019-03-27T04:33:10.907Z,76.9
2019-03-27T04:34:10.820Z,77.1
2019-03-27T04:35:10.759Z,76.7
2019-03-27T04:36:11.199Z,76.6
2019-03-27T04:37:11.116Z,76.9
2019-03-27T04:38:11.038Z,76.7
2019-03-27T04:39:10.995Z,76.5
2019-03-27T04:40:10.896Z,75.8
2019-03-27T04:41:10.959Z,76
2019-03-27T04:42:10.875Z,76.3
2019-03-27T04:43:10.782Z,76.6
2019-03-27T04:44:10.688Z,76.7
2019-03-27T04:45:10.619Z,76.2
2019-03-27T04:46:10.953Z,76.3
2019-03-27T04:47:10.865Z,76.1
2019-03-27T04:48:10.798Z,76
2019-03-27T04:49:10.713Z,76.1
2019-03-27T04:50:10.715Z,76.1
2019-03-27T04:51:10.617Z,76.2
2019-03-27T04:52:10.493Z,75.8
2019-03-27T04:53:10.383Z,75.8
2019-03-27T04:54:10.281Z,75.8
2019-03-27T04:55:10.183Z,76.4
2019-03-27T04:56:10.496Z,76
2019-03-27T04:57:10.381Z,75.7
2019-03-27T04:58:10.270Z,75.8
2019-03-27T04:59:10.161Z,76.1
2019-03-27T05:00:10.078Z,76.1
2019-03-27T05:01:09.963Z,76.2
2019-03-27T05:02:09.995Z,76.2
2019-03-27T05:03:09.907Z,76.5
2019-03-27T05:04:09.790Z,76.3
2019-03-27T05:05:09.677Z,77.1
2019-03-27T05:06:10.030Z,76.7
2019-03-27T05:07:09.912Z,76.5
2019-03-27T05:08:13.720Z,76.7
2019-03-27T05:09:13.638Z,76.8
2019-03-27T05:10:13.547Z,77
2019-03-27T05:11:13.488Z,77
2019-03-27T05:12:13.467Z,76.9
2019-03-27T05:13:13.379Z,77
2019-03-27T05:14:13.270Z,77.2
2019-03-27T05:15:13.171Z,77.7
2019-03-27T05:16:13.499Z,77.4
2019-03-27T05:17:13.383Z,77.6
2019-03-27T05:18:13.303Z,77.5
2019-03-27T05:19:13.239Z,77.5
2019-03-27T05:20:13.139Z,77.6
2019-03-27T05:21:13.037Z,77.9
2019-03-27T05:22:12.930Z,77.4
2019-03-27T05:23:12.863Z,77.5
2019-03-27T05:24:12.777Z,77.6
2019-03-27T05:25:12.678Z,78.7
2019-03-27T05:26:13.038Z,78.2
2019-03-27T05:27:12.969Z,78
2019-03-27T05:28:12.858Z,78.3
2019-03-27T05:29:12.763Z,78.3
2019-03-27T05:30:12.877Z,78.1
2019-03-27T05:31:12.769Z,78.2
2019-03-27T05:32:12.674Z,78
2019-03-27T05:33:12.581Z,78.3
2019-03-27T05:34:12.465Z,78.5
2019-03-27T05:35:12.360Z,78.3
2019-03-27T05:36:12.718Z,77.9
2019-03-27T05:56:11.879Z,73.4
2019-03-27T05:57:11.781Z,74.1
2019-03-27T05:58:11.768Z,74.3
2019-03-27T05:59:11.669Z,74.2
2019-03-27T06:00:11.568Z,74.5
2019-03-27T06:01:11.486Z,74.8
2019-03-27T06:02:11.463Z,75.3
2019-03-27T06:03:11.367Z,75.8
2019-03-27T06:04:11.259Z,76
2019-03-27T06:05:11.149Z,76.3
2019-03-27T06:06:11.558Z,76.5
2019-03-27T06:07:11.461Z,76.8
2019-03-27T06:08:11.376Z,77
2019-03-27T06:09:11.276Z,77.2
2019-03-27T06:10:11.163Z,78.1
2019-03-27T06:11:11.058Z,77.1
2019-03-27T06:12:10.986Z,77.1
2019-03-27T06:13:10.860Z,77.6
2019-03-27T06:14:10.750Z,77.7
2019-03-27T06:15:10.735Z,77.9
2019-03-27T06:16:11.081Z,77.9
2019-03-27T06:17:10.986Z,77.5
2019-03-27T06:18:14.176Z,77.6
2019-03-27T06:19:14.070Z,78.1
2019-03-27T06:20:13.976Z,78.2
2019-03-27T06:21:13.900Z,77.8
2019-03-27T06:22:15.894Z,77.9
2019-03-27T06:23:15.785Z,77.9
2019-03-27T06:24:15.680Z,77.9
2019-03-27T06:25:15.556Z,77.8
2019-03-27T06:26:15.895Z,77.7
2019-03-27T06:27:15.788Z,77.6
2019-03-27T06:28:15.682Z,77.6
2019-03-27T06:29:16.675Z,77.5
2019-03-27T06:30:16.583Z,77.4
2019-03-27T06:31:16.486Z,77.4
2019-03-27T06:32:16.410Z,77.5
2019-03-27T06:33:16.328Z,77.4
2019-03-27T06:34:16.202Z,77.9
2019-03-27T06:35:16.170Z,77.9
2019-03-27T06:36:16.508Z,77.5
2019-03-27T06:37:16.402Z,77.9
2019-03-27T06:38:16.292Z,77.8
2019-03-27T06:39:16.178Z,77.9
2019-03-27T06:40:16.062Z,77.5
2019-03-27T06:41:15.938Z,77.4
2019-03-27T06:42:15.873Z,77.9
2019-03-27T06:43:15.750Z,78
2019-03-27T06:44:15.638Z,78.1
2019-03-27T06:45:15.532Z,77.9
2019-03-27T06:46:15.907Z,77.7
2019-03-27T06:47:15.882Z,77.5
2019-03-27T06:48:27.231Z,77.5
2019-03-27T06:49:27.128Z,77.4
2019-03-27T06:50:27.014Z,77.4
2019-03-27T06:51:41.049Z,77.2
2019-03-27T06:52:40.985Z,77.1
2019-03-27T06:53:40.878Z,76.9
2019-03-27T06:54:40.794Z,76.7
2019-03-27T06:55:40.684Z,77
2019-03-27T06:56:40.977Z,77
2019-03-27T06:57:40.948Z,76.5
2019-03-27T06:58:55.601Z,76.5
2019-03-27T06:59:55.500Z,76.3
2019-03-27T07:00:55.381Z,76.3
2019-03-27T07:01:55.289Z,76
2019-03-27T07:02:55.190Z,75.9
2019-03-27T07:03:55.069Z,76.2
2019-03-27T07:04:54.955Z,76.1
2019-03-27T07:05:54.846Z,76.1
2019-03-27T07:06:55.220Z,76
2019-03-27T07:07:55.162Z,76.4
2019-03-27T07:08:55.055Z,76.3
2019-03-27T07:09:54.970Z,76.5
2019-03-27T07:10:54.884Z,76.2
2019-03-27T07:11:54.784Z,76
2019-03-27T07:12:54.686Z,76
2019-03-27T07:13:54.665Z,76.3
2019-03-27T07:14:54.560Z,76.3
2019-03-27T07:15:54.492Z,76
2019-03-27T07:16:54.821Z,75.6
2019-03-27T07:17:54.700Z,75.6
2019-03-27T07:18:54.600Z,75.6
2019-03-27T07:19:54.504Z,75.4
2019-03-27T07:20:54.399Z,75.2
2019-03-27T07:21:54.293Z,75.1
2019-03-27T07:22:54.282Z,74.2
2019-03-27T07:23:54.211Z,74.4
2019-03-27T07:24:54.103Z,74.3
2019-03-27T07:25:53.999Z,73.9
2019-03-27T07:26:54.324Z,73.9
2019-03-27T07:27:54.230Z,74.1
2019-03-27T07:28:54.189Z,74.4
2019-03-27T07:29:54.163Z,73.8
2019-03-27T07:30:54.313Z,73.4
2019-03-27T07:31:54.204Z,73.4
2019-03-27T07:32:54.108Z,73.4
2019-03-27T07:33:54.034Z,72.9
2019-03-27T07:34:53.919Z,72.7
2019-03-27T07:35:53.799Z,72.8
2019-03-27T07:36:56.897Z,72.7
2019-03-27T07:37:56.821Z,73
2019-03-27T07:39:11.996Z,73.2
2019-03-27T07:40:11.974Z,73
2019-03-27T07:41:11.886Z,73.2
2019-03-27T07:42:14.525Z,72.5
2019-03-27T07:43:14.423Z,72.5
2019-03-27T07:44:14.345Z,72.2
2019-03-27T07:45:14.249Z,72
2019-03-27T07:46:14.135Z,72
2019-03-27T07:47:14.467Z,72.3
2019-03-27T07:48:14.357Z,73.2
2019-03-27T07:49:14.264Z,72.7
2019-03-27T07:50:14.167Z,72.6
2019-03-27T07:51:14.070Z,72.4
2019-03-27T07:52:13.979Z,72.8
2019-03-27T07:53:13.901Z,72.3
2019-03-27T07:54:13.781Z,72
2019-03-27T07:55:20.516Z,72.1
2019-03-27T07:56:20.424Z,72.4
2019-03-27T07:57:20.740Z,72
2019-03-27T08:07:27.837Z,68.5
2019-03-27T08:08:27.750Z,69.6
2019-03-27T08:09:27.643Z,69.8
2019-03-27T08:10:27.560Z,69.4
2019-03-27T08:11:27.823Z,68.8
2019-03-27T08:12:28.029Z,68.5
2019-03-27T08:13:28.034Z,68
2019-03-27T08:14:27.933Z,67.4
2019-03-27T08:15:27.851Z,67
2019-03-27T08:16:27.813Z,67.6
2019-03-27T08:17:28.141Z,67
2019-03-27T08:18:28.061Z,67.9
2019-03-27T08:19:27.963Z,68.2
2019-03-27T08:20:27.855Z,68.1
2019-03-27T08:21:31.462Z,68
2019-03-27T08:22:31.395Z,67.1
2019-03-27T08:23:31.348Z,67.1
2019-03-27T08:24:31.250Z,66.9
2019-03-27T08:25:31.161Z,66.9
2019-03-27T08:26:31.075Z,67.6
2019-03-27T08:27:31.427Z,66.5
2019-03-27T08:28:31.349Z,65.8
2019-03-27T08:29:31.260Z,63.9
2019-03-27T08:30:31.163Z,64.6
2019-03-27T08:31:31.087Z,64.3
2019-03-27T08:32:30.965Z,64.7
2019-03-27T08:33:30.929Z,64.4
2019-03-27T08:34:30.817Z,63.9
2019-03-27T08:35:30.715Z,64.3
2019-03-27T08:36:30.891Z,64.3
2019-03-27T08:37:31.309Z,64.9
2019-03-27T08:38:31.193Z,64.9
2019-03-27T08:39:31.091Z,65.8
2019-03-27T08:40:31.003Z,66.4
2019-03-27T08:41:30.899Z,66.5
2019-03-27T08:42:30.807Z,66.3
2019-03-27T08:43:30.695Z,66.4
2019-03-27T08:44:30.589Z,66.7
2019-03-27T08:45:30.499Z,66.2
2019-03-27T08:46:30.533Z,67.1
2019-03-27T08:47:30.898Z,67.4
2019-03-27T08:48:30.792Z,69.4
2019-03-27T08:49:30.700Z,67.8
2019-03-27T08:50:30.591Z,66.8
2019-03-27T08:51:30.500Z,67
2019-03-27T08:52:30.441Z,66.5
2019-03-27T08:53:30.384Z,67.4
2019-03-27T08:54:30.294Z,67.4
2019-03-27T08:55:30.202Z,67.7
2019-03-27T08:56:30.119Z,67.1
2019-03-27T08:57:30.474Z,66.8
2019-03-27T08:58:30.381Z,67.7
2019-03-27T08:59:30.991Z,67.7
2019-03-27T09:00:30.881Z,67.4
2019-03-27T09:01:30.780Z,67.5
2019-03-27T09:02:30.698Z,67.8
2019-03-27T09:03:30.583Z,68.5
2019-03-27T09:04:30.501Z,69.5
2019-03-27T09:05:30.387Z,69.4
2019-03-27T09:06:34.886Z,70
2019-03-27T09:07:35.269Z,70.3
2019-03-27T09:08:35.166Z,70.5
2019-03-27T09:09:35.057Z,69.8
2019-03-27T09:10:34.956Z,69.8
2019-03-27T09:11:34.871Z,69.6
2019-03-27T09:12:34.782Z,69.5
2019-03-27T09:13:34.672Z,69.4
2019-03-27T09:14:34.555Z,67.7
2019-03-27T09:15:34.470Z,66.8
2019-03-27T09:16:34.366Z,67.3
2019-03-27T09:17:34.713Z,67.1
2019-03-27T09:18:34.618Z,66.9
2019-03-27T09:19:36.996Z,66.7
2019-03-27T09:20:36.875Z,65.8
2019-03-27T09:21:36.768Z,65.5
2019-03-27T09:22:36.682Z,65
2019-03-27T09:23:36.572Z,65.1
2019-03-27T09:24:36.454Z,65.2
2019-03-27T09:25:36.341Z,65.2
2019-03-27T09:26:36.234Z,64.1
2019-03-27T09:27:36.594Z,64
2019-03-27T09:28:36.484Z,64.7
2019-03-27T09:29:36.366Z,65
2019-03-27T09:30:36.254Z,64.6
2019-03-27T09:31:46.006Z,63.8
2019-03-27T09:32:45.912Z,64.9
2019-03-27T09:33:45.838Z,65.1
2019-03-27T09:34:45.756Z,66.1
2019-03-27T09:35:45.871Z,64.2
2019-03-27T09:36:45.886Z,62.6
2019-03-27T09:37:46.322Z,63
2019-03-27T09:38:46.229Z,62.2
2019-03-27T09:39:48.804Z,61.7
2019-03-27T09:40:48.716Z,61.6
2019-03-27T09:41:48.678Z,61.2
2019-03-27T09:42:48.576Z,61.3
2019-03-27T09:43:48.508Z,61.2
2019-03-27T09:44:48.398Z,60.8
2019-03-27T09:45:48.284Z,61.4
2019-03-27T09:46:48.232Z,63
2019-03-27T09:47:48.550Z,63.2
2019-03-27T09:48:48.479Z,62
2019-03-27T09:49:50.707Z,61.6
2019-03-27T09:50:50.595Z,62.3
2019-03-27T09:51:50.508Z,60.7
2019-03-27T09:52:50.409Z,59.8
2019-03-27T09:53:53.888Z,60.1
2019-03-27T09:54:53.806Z,60.9
2019-03-27T09:55:53.704Z,61.4
2019-03-27T09:56:53.596Z,61.4
2019-03-27T09:57:53.906Z,61.8
2019-03-27T09:58:53.818Z,62.4
2019-03-27T09:59:53.726Z,62.7
2019-03-27T10:00:53.632Z,62.4
2019-03-27T10:01:53.524Z,62.5
2019-03-27T10:02:53.414Z,61.1
2019-03-27T10:03:54.424Z,62
2019-03-27T10:04:56.739Z,62.1
2019-03-27T10:05:56.626Z,61.8
2019-03-27T10:06:56.548Z,62.6
2019-03-27T10:07:56.872Z,63.4
2019-03-27T10:08:56.798Z,62.4
2019-03-27T10:09:56.709Z,62
2019-03-27T10:10:56.596Z,62
2019-03-27T10:11:56.505Z,62.4
2019-03-27T10:12:56.382Z,62.7
2019-03-27T10:13:56.281Z,63
2019-03-27T10:14:56.216Z,63.2
2019-03-27T10:15:56.122Z,63.4
2019-03-27T10:16:56.046Z,63.2
2019-03-27T10:17:56.360Z,63.6
2019-03-27T10:18:56.315Z,63.4
2019-03-27T10:20:04.907Z,63.4
2019-03-27T10:21:04.817Z,62.2
2019-03-27T10:22:04.788Z,61.8
2019-03-27T10:23:04.690Z,62.9
2019-03-27T10:24:04.611Z,62.7
2019-03-27T10:25:04.543Z,62.7
2019-03-27T10:26:04.440Z,62.7
2019-03-27T10:27:04.332Z,63.7
2019-03-27T10:28:04.655Z,64.6
2019-03-27T10:29:04.560Z,65.8
2019-03-27T10:30:04.472Z,65.4
2019-03-27T10:31:04.386Z,65.6
2019-03-27T10:32:04.285Z,65.4
2019-03-27T10:33:04.170Z,65
2019-03-27T10:34:04.059Z,65.1
2019-03-27T10:35:03.942Z,65.3
2019-03-27T10:36:03.865Z,65
2019-03-27T10:37:03.776Z,65.2
2019-03-27T10:38:04.130Z,64.8
2019-03-27T10:39:04.021Z,64.8
2019-03-27T10:40:03.945Z,65.2
2019-03-27T10:41:03.955Z,64.9
2019-03-27T10:42:03.835Z,64.9
2019-03-27T10:43:03.767Z,64.9
2019-03-27T10:44:03.697Z,65.1
2019-03-27T10:45:03.594Z,65.5
2019-03-27T10:46:03.503Z,66
2019-03-27T10:47:03.439Z,66.5
2019-03-27T10:48:03.906Z,66.6
2019-03-27T10:49:03.817Z,66.6
2019-03-27T10:50:18.705Z,66.8
2019-03-27T10:51:18.611Z,65.8
2019-03-27T10:52:18.513Z,66
2019-03-27T10:53:18.408Z,66.3
2019-03-27T10:54:18.301Z,66.5
2019-03-27T10:55:18.215Z,65
2019-03-27T10:56:18.113Z,64.8
2019-03-27T10:57:18.016Z,64.8
2019-03-27T10:58:18.527Z,63.7
2019-03-27T10:59:18.425Z,64
2019-03-27T11:08:16.672Z,60.3
2019-03-27T11:09:16.555Z,61.6
2019-03-27T11:10:16.459Z,61.7
2019-03-27T11:11:16.367Z,62
2019-03-27T11:12:16.275Z,62.5
2019-03-27T11:13:16.204Z,62.6
2019-03-27T11:14:16.087Z,62.1
2019-03-27T11:15:15.980Z,62.3
2019-03-27T11:16:15.938Z,62.7
2019-03-27T11:17:15.829Z,63.4
2019-03-27T11:18:16.200Z,63.6
2019-03-27T11:19:16.113Z,63.5
2019-03-27T11:20:16.037Z,62.6
2019-03-27T11:21:15.995Z,62
2019-03-27T11:22:15.896Z,62.2
2019-03-27T11:23:15.875Z,62.3
2019-03-27T11:24:15.771Z,62.3
2019-03-27T11:25:15.685Z,61.9
2019-03-27T11:26:15.577Z,61.8
2019-03-27T11:27:15.538Z,62.3
2019-03-27T11:28:15.895Z,62.3
2019-03-27T11:29:15.777Z,61.8
2019-03-27T11:30:15.679Z,61
2019-03-27T11:31:15.594Z,61.6
2019-03-27T11:32:15.485Z,61.9
2019-03-27T11:33:15.369Z,61.7
2019-03-27T11:34:15.321Z,61.5
2019-03-27T11:35:15.311Z,61.8
2019-03-27T11:36:15.230Z,62.8
2019-03-27T11:37:15.159Z,63.3
2019-03-27T11:38:15.539Z,62.4
2019-03-27T11:39:15.470Z,62.3
2019-03-27T11:40:15.367Z,62.8
2019-03-27T11:41:15.261Z,62.7
2019-03-27T11:42:15.155Z,62.8
2019-03-27T11:43:15.053Z,62.7
2019-03-27T11:44:15.031Z,62.4
2019-03-27T11:45:14.951Z,61.8
2019-03-27T11:46:14.841Z,62.1
2019-03-27T11:47:14.717Z,62.1
2019-03-27T11:48:15.012Z,61.7
2019-03-27T11:49:14.915Z,61.2
2019-03-27T11:50:14.843Z,61.8
2019-03-27T11:51:14.761Z,62.4
2019-03-27T11:52:14.651Z,62.1
2019-03-27T11:53:14.553Z,62.2
2019-03-27T11:54:14.441Z,61.6
2019-03-27T11:55:14.347Z,61.9
2019-03-27T11:56:14.280Z,62
2019-03-27T11:57:14.166Z,62.3
2019-03-27T11:58:15.727Z,62.1
2019-03-27T11:59:15.626Z,62.4
2019-03-27T12:00:15.531Z,62
2019-03-27T12:01:15.435Z,61.8
2019-03-27T12:02:15.331Z,61.6
2019-03-27T12:03:15.235Z,61.8
2019-03-27T12:04:15.148Z,62.7
2019-03-27T12:05:15.051Z,62.3
2019-03-27T12:06:14.965Z,61.3
2019-03-27T12:07:14.877Z,61
2019-03-27T12:08:15.281Z,61.3
2019-03-27T12:09:15.196Z,61.4
2019-03-27T12:10:15.091Z,61.8
2019-03-27T12:11:15.010Z,61.8
2019-03-27T12:12:14.903Z,62
2019-03-27T12:13:14.820Z,62
2019-03-27T12:14:14.733Z,62.7
2019-03-27T12:15:14.628Z,61.8
2019-03-27T12:16:14.543Z,61.8
2019-03-27T12:17:14.441Z,61.1
2019-03-27T12:18:14.805Z,61
2019-03-27T12:19:14.722Z,61.7
2019-03-27T12:20:14.605Z,61.9
2019-03-27T12:21:14.518Z,61.9
2019-03-27T12:22:14.448Z,61.9
2019-03-27T12:23:14.356Z,61.7
2019-03-27T12:24:14.260Z,61.5
2019-03-27T12:25:14.150Z,60.1
2019-03-27T12:26:14.045Z,60.2
2019-03-27T12:27:13.948Z,61
2019-03-27T12:28:14.322Z,60.8
2019-03-27T12:29:14.222Z,60.9
2019-03-27T12:30:14.134Z,60.2
2019-03-27T12:31:14.066Z,60.1
2019-03-27T12:32:13.984Z,60.3
2019-03-27T12:33:13.889Z,60.9
2019-03-27T12:34:13.763Z,60.2
2019-03-27T12:35:13.677Z,60.2
2019-03-27T12:36:13.566Z,59.8
2019-03-27T12:37:13.556Z,60.1
2019-03-27T12:38:13.888Z,60.6
2019-03-27T12:39:13.770Z,60.2
2019-03-27T12:40:13.667Z,59.8
2019-03-27T12:41:13.580Z,59.9
2019-03-27T12:42:13.502Z,59.8
2019-03-27T12:43:13.550Z,60.6
2019-03-27T12:44:13.439Z,61
2019-03-27T12:45:13.345Z,60.9
2019-03-27T12:46:13.236Z,60.1
2019-03-27T12:47:13.152Z,59.7
2019-03-27T12:48:13.436Z,60
2019-03-27T12:49:13.316Z,60.4
2019-03-27T12:50:13.205Z,60
2019-03-27T12:51:14.110Z,60.2
2019-03-27T12:52:14.036Z,60.4
2019-03-27T12:53:13.934Z,60.2
2019-03-27T12:54:13.820Z,60.5
2019-03-27T12:55:13.716Z,60.7
2019-03-27T12:56:13.687Z,59.7
2019-03-27T12:57:13.574Z,59.9
2019-03-27T12:58:13.998Z,59.7
2019-03-27T12:59:13.900Z,59.4
2019-03-27T13:00:13.813Z,59.7
2019-03-27T13:01:13.715Z,60.3
2019-03-27T13:02:13.628Z,60.2
2019-03-27T13:03:13.561Z,59.7
2019-03-27T13:04:13.486Z,60
2019-03-27T13:05:13.385Z,59.8
2019-03-27T13:06:13.278Z,59.9
2019-03-27T13:07:13.168Z,59.7
2019-03-27T13:08:20.434Z,59.9
2019-03-27T13:09:20.351Z,59.9
2019-03-27T13:10:20.248Z,59.8
2019-03-27T13:11:20.147Z,59.8
2019-03-27T13:12:20.096Z,59.9
2019-03-27T13:13:19.981Z,59.9
2019-03-27T13:14:19.891Z,59.8
2019-03-27T13:15:19.789Z,59.8
2019-03-27T13:16:19.686Z,60
2019-03-27T13:17:19.575Z,59.7
2019-03-27T13:18:19.903Z,59.6
2019-03-27T13:19:19.804Z,59.3
2019-03-27T13:20:19.708Z,58.8
2019-03-27T13:28:26.347Z,58.4
2019-03-27T13:29:26.251Z,58.9
2019-03-27T13:30:26.171Z,59.1
2019-03-27T13:31:26.067Z,59.2
2019-03-27T13:32:25.957Z,59.5
2019-03-27T13:33:25.868Z,59.5
2019-03-27T13:34:25.788Z,58.7
2019-03-27T13:35:25.662Z,58.8
2019-03-27T13:36:25.564Z,59
2019-03-27T13:37:25.611Z,59.6
2019-03-27T13:38:25.946Z,59.6
2019-03-27T13:39:25.871Z,59.8
2019-03-27T13:40:25.768Z,60
2019-03-27T13:41:25.654Z,59.7
2019-03-27T13:42:25.552Z,59.7
2019-03-27T13:43:25.459Z,59.9
2019-03-27T13:44:38.196Z,59.8
2019-03-27T13:45:38.118Z,60.2
2019-03-27T13:46:38.021Z,60.4
2019-03-27T13:47:37.901Z,60.4
2019-03-27T13:48:38.213Z,60.3
2019-03-27T13:49:38.164Z,60.9
2019-03-27T13:50:38.085Z,61.5
2019-03-27T13:55:40.741Z,61.1
2019-03-27T14:08:38.453Z,59.9
2019-03-27T14:09:38.349Z,60.9
2019-03-27T14:10:38.275Z,61.8
2019-03-27T14:11:38.173Z,62.2
2019-03-27T14:12:38.050Z,62.4
2019-03-27T14:13:37.971Z,62.2
2019-03-27T14:14:51.370Z,61.8
2019-03-27T14:15:51.293Z,62.1
2019-03-27T14:16:51.203Z,62.3
2019-03-27T14:17:51.099Z,62.5
2019-03-27T14:18:51.418Z,62.4
2019-03-27T14:19:51.331Z,62.4
2019-03-27T14:20:51.251Z,61.9
2019-03-27T14:21:55.869Z,61.5
2019-03-27T14:23:55.489Z,61
2019-03-27T14:32:53.723Z,59.4
2019-03-27T14:38:54.051Z,59.2
2019-03-27T14:39:53.936Z,59.9
2019-03-27T14:40:53.839Z,60.3
2019-03-27T14:41:53.765Z,60.7
2019-03-27T14:42:53.653Z,60.9
2019-03-27T14:43:53.545Z,61.4
2019-03-27T14:44:53.447Z,61.4
2019-03-27T14:45:53.423Z,61.6
2019-03-27T14:46:53.337Z,61.8
2019-03-27T14:47:53.297Z,62.2
2019-03-27T14:48:53.597Z,63.2
2019-03-27T14:49:53.485Z,62.9
2019-03-27T14:50:53.380Z,63.6
2019-03-27T14:51:53.273Z,64.2
2019-03-27T14:53:10.257Z,64.7
2019-03-27T14:54:10.149Z,64.9
2019-03-27T14:55:10.056Z,65.3
2019-03-27T14:56:09.951Z,65.3
2019-03-27T14:57:09.930Z,65.3
2019-03-27T14:58:09.812Z,65.7
2019-03-27T14:59:10.160Z,65.7
2019-03-27T15:00:10.067Z,65.7
2019-03-27T15:01:09.991Z,65.8
2019-03-27T15:02:09.961Z,66.3
2019-03-27T15:03:09.907Z,66.3
2019-03-27T15:04:09.911Z,66.5
2019-03-27T15:05:09.868Z,66.3
2019-03-27T15:06:09.863Z,66.4
2019-03-27T15:07:09.786Z,66.3
2019-03-27T15:08:10.086Z,66.6
2019-03-27T15:09:10.841Z,66.4
2019-03-27T15:10:10.753Z,66.6
2019-03-27T15:11:10.733Z,66.6
2019-03-27T15:12:10.769Z,66.5
2019-03-27T15:13:10.691Z,66.3
2019-03-27T15:14:10.591Z,66.3
2019-03-27T15:15:10.550Z,66.5
2019-03-27T15:16:10.468Z,66.8
2019-03-27T15:17:10.355Z,66.9
2019-03-27T15:18:10.273Z,67.3
2019-03-27T15:19:10.649Z,67.9
2019-03-27T15:20:10.553Z,68
2019-03-27T15:21:10.463Z,68
2019-03-27T15:22:23.437Z,67.5
2019-03-27T15:23:23.349Z,67.5
2019-03-27T15:24:23.253Z,67.5
2019-03-27T15:25:23.152Z,67.4
2019-03-27T15:26:23.064Z,67.3
2019-03-27T15:27:25.757Z,67.2
2019-03-27T15:28:25.657Z,66.9
2019-03-27T15:29:26.066Z,66.8
2019-03-27T15:30:25.983Z,66.8
2019-03-27T15:39:24.459Z,64.2
2019-03-27T15:40:24.379Z,64.9
2019-03-27T15:41:24.286Z,65.2
2019-03-27T15:42:24.187Z,65.6
2019-03-27T15:43:24.087Z,65.4
2019-03-27T15:44:23.989Z,65.2
2019-03-27T15:45:23.903Z,65.7
2019-03-27T15:46:23.799Z,65
2019-03-27T15:47:23.703Z,65.1
2019-03-27T15:48:23.608Z,65.3
2019-03-27T15:49:23.985Z,65.3
2019-03-27T15:50:24.009Z,65.6
2019-03-27T15:51:23.895Z,65.7
2019-03-27T15:52:37.886Z,65.4
2019-03-27T15:53:37.803Z,65.2